Time;durP1;ratioP1;P1;durP2;ratioP2;P2;SDS_P1;SDS_P2;PMS_P1;PMS_P2;Temp;Humidity;BMP_temperature;BMP_pressure;BME280_temperature;BME280_humidity;BME280_pressure;Samples;Min_cycle;Max_cycle;Signal;HPM_P1;HPM_P2
2022/07/10 00:00:38;;;;;;;7.10;0.55;;;15.00;99.90;;;;;;4845811;29;20081;-87
2022/07/10 00:03:05;;;;;;;2.90;0.43;;;15.10;99.90;;;;;;4862340;29;20092;-87
2022/07/10 00:05:31;;;;;;;3.25;1.00;;;15.00;99.90;;;;;;4862534;29;20057;-87
2022/07/10 00:07:57;;;;;;;3.83;0.30;;;15.00;99.90;;;;;;4862059;29;20073;-88
2022/07/10 00:10:23;;;;;;;1.77;0.40;;;15.10;99.90;;;;;;4861510;29;20061;-86
2022/07/10 00:12:50;;;;;;;4.13;0.20;;;15.10;99.90;;;;;;4861838;29;20102;-86
2022/07/10 00:15:17;;;;;;;5.20;0.60;;;15.10;99.90;;;;;;4861601;29;20571;-87
2022/07/10 00:17:44;;;;;;;1.92;0.38;;;15.00;99.90;;;;;;4844858;29;20049;-86
2022/07/10 00:20:11;;;;;;;4.63;0.43;;;15.10;99.90;;;;;;4861720;29;20053;-86
2022/07/10 00:22:38;;;;;;;1.48;0.28;;;15.00;99.90;;;;;;4861244;29;20037;-87
2022/07/10 00:25:04;;;;;;;1.67;0.30;;;14.90;99.90;;;;;;4862053;29;20132;-87
2022/07/10 00:27:31;;;;;;;5.03;0.85;;;15.00;99.90;;;;;;4844900;29;20049;-86
2022/07/10 00:29:57;;;;;;;4.30;0.70;;;14.90;99.90;;;;;;4845012;29;20255;-87
2022/07/10 00:32:24;;;;;;;2.33;0.30;;;14.90;99.90;;;;;;4844855;29;20053;-87
2022/07/10 00:34:50;;;;;;;2.55;0.30;;;15.00;99.90;;;;;;4844766;29;20999;-86
2022/07/10 00:37:15;;;;;;;2.50;0.40;;;15.00;99.90;;;;;;4844918;29;20042;-87
2022/07/10 00:39:41;;;;;;;3.72;0.45;;;14.90;99.90;;;;;;4861825;29;20098;-86
2022/07/10 00:42:11;;;;;;;2.88;0.30;;;14.90;99.90;;;;;;4860871;29;20052;-86
2022/07/10 00:44:38;;;;;;;3.78;0.30;;;14.80;99.90;;;;;;4826469;29;20050;-85
2022/07/10 00:47:05;;;;;;;2.22;0.20;;;14.90;99.90;;;;;;4842937;29;20500;-85
2022/07/10 00:49:32;;;;;;;7.47;1.33;;;14.80;99.90;;;;;;4860375;29;20491;-85
2022/07/10 00:52:00;;;;;;;7.20;0.50;;;14.80;99.90;;;;;;4861332;29;20049;-86
2022/07/10 00:54:27;;;;;;;1.77;0.30;;;14.80;99.90;;;;;;4860992;29;20113;-86
2022/07/10 00:56:53;;;;;;;2.28;0.30;;;14.80;99.90;;;;;;4860868;29;20407;-86
2022/07/10 00:59:20;;;;;;;2.20;0.40;;;14.80;99.90;;;;;;4861071;29;20081;-87
2022/07/10 01:01:45;;;;;;;1.17;0.30;;;14.80;99.90;;;;;;4861006;29;20048;-85
2022/07/10 01:04:11;;;;;;;7.57;1.05;;;14.90;99.90;;;;;;4860448;29;20045;-86
2022/07/10 01:06:37;;;;;;;3.72;0.55;;;14.90;99.90;;;;;;4861114;29;20496;-84
2022/07/10 01:09:03;;;;;;;5.88;0.60;;;14.90;99.90;;;;;;4860620;29;20046;-86
2022/07/10 01:11:31;;;;;;;6.43;0.45;;;14.90;99.90;;;;;;4859982;29;20185;-87
2022/07/10 01:13:57;;;;;;;4.95;0.40;;;14.90;99.90;;;;;;4860597;29;20057;-85
2022/07/10 01:16:23;;;;;;;4.95;0.40;;;14.90;99.90;;;;;;4860482;29;20049;-85
2022/07/10 01:18:49;;;;;;;4.35;0.40;;;14.90;99.90;;;;;;4844049;29;20053;-85
2022/07/10 01:21:28;;;;;;;1.17;0.22;;;14.90;99.90;;;;;;4860908;29;20057;-86
2022/07/10 01:23:55;;;;;;;2.00;0.30;;;14.70;99.90;;;;;;4860777;29;20041;-85
2022/07/10 01:26:23;;;;;;;4.88;0.30;;;14.80;99.90;;;;;;4859959;29;20097;-86
2022/07/10 01:28:50;;;;;;;1.00;0.20;;;14.90;99.90;;;;;;4859475;29;20053;-85
2022/07/10 01:31:17;;;;;;;3.75;0.77;;;14.90;99.90;;;;;;4860568;29;20129;-86
2022/07/10 01:33:44;;;;;;;2.17;0.30;;;14.90;99.90;;;;;;4860782;29;20053;-86
2022/07/10 01:36:10;;;;;;;2.83;0.40;;;14.90;99.90;;;;;;4860217;29;20061;-87
2022/07/10 01:38:36;;;;;;;3.92;0.35;;;15.20;99.90;;;;;;4843928;29;20049;-86
2022/07/10 01:41:02;;;;;;;5.78;0.45;;;14.80;99.90;;;;;;4860399;29;20044;-86
2022/07/10 01:43:27;;;;;;;2.13;0.40;;;14.90;99.90;;;;;;4860123;29;20529;-86
2022/07/10 01:45:53;;;;;;;1.50;0.30;;;14.80;99.90;;;;;;4843746;29;20128;-85
2022/07/10 01:48:19;;;;;;;3.08;0.55;;;14.70;99.90;;;;;;4841921;29;20057;-86
2022/07/10 01:50:44;;;;;;;4.45;0.80;;;14.70;99.90;;;;;;4842423;29;20054;-86
2022/07/10 01:53:10;;;;;;;4.78;0.50;;;14.80;99.90;;;;;;4842424;29;20049;-85
2022/07/10 01:55:37;;;;;;;4.40;0.45;;;14.80;99.90;;;;;;4858412;29;20403;-87
2022/07/10 01:58:02;;;;;;;1.50;0.30;;;14.80;99.90;;;;;;4860769;29;20128;-87
2022/07/10 02:00:28;;;;;;;3.50;0.50;;;14.80;99.90;;;;;;4861111;29;20482;-87
2022/07/10 02:05:38;;;;;;;4.72;0.70;;;15.10;99.90;;;;;;4860315;29;20049;-85
2022/07/10 02:08:06;;;;;;;5.78;0.60;;;15.00;99.90;;;;;;4860244;29;20618;-87
2022/07/10 02:10:32;;;;;;;4.15;0.50;;;14.90;99.90;;;;;;4859707;29;20049;-87
2022/07/10 02:12:57;;;;;;;3.00;0.50;;;14.80;99.90;;;;;;4860350;29;20057;-86
2022/07/10 02:15:23;;;;;;;6.53;0.50;;;14.70;99.90;;;;;;4860134;29;20373;-86
2022/07/10 02:17:49;;;;;;;4.57;0.50;;;14.80;99.90;;;;;;4860371;29;20049;-86
2022/07/10 02:20:15;;;;;;;2.47;0.50;;;14.70;99.90;;;;;;4843620;29;20049;-87
2022/07/10 02:22:41;;;;;;;3.80;0.30;;;14.70;99.90;;;;;;4859681;29;20042;-86
2022/07/10 02:25:07;;;;;;;7.28;0.57;;;14.70;99.90;;;;;;4864088;29;20137;-86
2022/07/10 02:27:33;;;;;;;1.70;0.20;;;14.70;99.90;;;;;;4864048;29;20462;-87
2022/07/10 02:29:59;;;;;;;5.10;0.60;;;14.70;99.90;;;;;;4863377;29;20059;-86
2022/07/10 02:32:24;;;;;;;4.15;0.40;;;14.60;99.90;;;;;;4847124;29;20388;-87
2022/07/10 02:34:50;;;;;;;1.83;0.30;;;14.50;99.90;;;;;;4847696;29;20092;-86
2022/07/10 02:37:16;;;;;;;3.17;0.40;;;14.60;99.90;;;;;;4862936;29;20121;-86
2022/07/10 02:39:41;;;;;;;7.28;0.60;;;14.60;99.90;;;;;;4863197;29;20041;-86
2022/07/10 02:42:07;;;;;;;5.05;0.40;;;14.70;99.90;;;;;;4846718;29;20537;-86
2022/07/10 02:44:33;;;;;;;3.63;0.40;;;14.80;99.90;;;;;;4846845;29;20407;-87
2022/07/10 02:46:59;;;;;;;3.42;1.17;;;15.20;99.90;;;;;;4863211;29;20053;-85
2022/07/10 02:49:24;;;;;;;1.08;0.30;;;14.80;99.90;;;;;;4863237;29;20090;-85
2022/07/10 02:51:50;;;;;;;1.42;0.22;;;14.80;99.90;;;;;;4862839;29;20078;-87
2022/07/10 02:54:16;;;;;;;3.72;0.32;;;14.70;99.90;;;;;;4863519;29;20105;-85
2022/07/10 02:56:42;;;;;;;7.43;0.68;;;14.70;99.90;;;;;;4863247;29;20073;-87
2022/07/10 02:59:08;;;;;;;5.70;0.47;;;14.70;99.90;;;;;;4846328;29;20466;-87
2022/07/10 03:01:33;;;;;;;7.20;0.50;;;14.70;99.90;;;;;;4862857;29;20041;-86
2022/07/10 03:04:01;;;;;;;4.88;1.02;;;14.70;99.90;;;;;;4846470;29;20045;-85
2022/07/10 03:06:27;;;;;;;6.18;0.50;;;14.60;99.90;;;;;;4846329;29;20049;-86
2022/07/10 03:08:53;;;;;;;3.03;0.35;;;14.60;99.90;;;;;;4846935;29;20049;-85
2022/07/10 03:11:18;;;;;;;1.50;0.38;;;14.70;99.90;;;;;;4862421;29;20614;-85
2022/07/10 03:13:44;;;;;;;4.63;0.50;;;14.60;99.90;;;;;;4862880;29;20578;-86
2022/07/10 03:16:10;;;;;;;3.95;0.30;;;14.60;99.90;;;;;;4846325;29;20078;-86
2022/07/10 03:18:36;;;;;;;2.72;0.40;;;14.60;99.90;;;;;;4845899;29;20041;-86
2022/07/10 03:21:02;;;;;;;5.03;0.40;;;14.60;99.90;;;;;;4862717;29;20041;-86
2022/07/10 03:23:27;;;;;;;3.13;0.45;;;14.60;99.90;;;;;;4862669;29;20041;-86
2022/07/10 03:25:53;;;;;;;3.28;0.80;;;14.60;99.90;;;;;;4864747;29;20079;-86
2022/07/10 03:28:19;;;;;;;7.68;0.80;;;14.60;99.90;;;;;;4863268;29;20049;-87
2022/07/10 03:30:44;;;;;;;3.85;0.68;;;14.60;99.90;;;;;;4863376;29;20077;-86
2022/07/10 03:33:10;;;;;;;2.63;0.30;;;14.60;99.90;;;;;;4848620;29;20041;-86
2022/07/10 03:35:36;;;;;;;3.55;0.88;;;14.60;99.90;;;;;;4853523;29;20053;-91
2022/07/10 03:38:02;;;;;;;3.28;0.95;;;14.70;99.90;;;;;;4864830;29;20045;-90
2022/07/10 03:40:28;;;;;;;2.67;0.40;;;14.70;99.90;;;;;;4863679;29;20060;-88
2022/07/10 03:42:53;;;;;;;4.72;0.35;;;14.80;99.90;;;;;;4862601;29;20431;-86
2022/07/10 03:45:19;;;;;;;3.63;0.45;;;14.80;99.90;;;;;;4845601;29;20128;-90
2022/07/10 03:47:45;;;;;;;3.38;0.55;;;14.80;99.90;;;;;;4862170;29;20402;-89
2022/07/10 03:50:11;;;;;;;6.80;0.60;;;14.90;99.90;;;;;;4862588;29;20045;-92
2022/07/10 03:52:36;;;;;;;4.53;0.50;;;14.90;99.90;;;;;;4862655;29;20548;-89
2022/07/10 03:55:03;;;;;;;5.95;0.40;;;14.90;99.90;;;;;;4862165;29;20154;-91
2022/07/10 04:00:14;;;;;;;7.50;0.52;;;15.00;99.90;;;;;;4862216;29;20050;-88
2022/07/10 04:02:40;;;;;;;3.28;0.90;;;15.10;99.90;;;;;;4861158;29;20045;-88
2022/07/10 04:05:07;;;;;;;4.32;0.55;;;15.00;99.90;;;;;;4862073;29;20056;-89
2022/07/10 04:07:34;;;;;;;2.17;0.40;;;15.10;99.90;;;;;;4845710;29;20054;-90
2022/07/10 04:10:00;;;;;;;5.70;0.50;;;15.30;99.90;;;;;;4861320;29;20053;-90
2022/07/10 04:12:25;;;;;;;2.97;0.60;;;15.40;99.90;;;;;;4862034;29;20079;-89
2022/07/10 04:14:51;;;;;;;9.82;0.68;;;15.20;99.90;;;;;;4861856;29;20273;-90
2022/07/10 04:17:17;;;;;;;2.55;0.43;;;15.30;99.90;;;;;;4844920;29;20060;-88
2022/07/10 04:19:43;;;;;;;9.50;0.60;;;15.20;99.90;;;;;;4862085;29;20110;-89
2022/07/10 04:22:09;;;;;;;4.93;0.80;;;15.30;99.90;;;;;;4862050;29;20499;-90
2022/07/10 04:24:35;;;;;;;3.55;0.47;;;15.30;99.90;;;;;;4861904;29;20042;-89
2022/07/10 04:27:01;;;;;;;5.05;0.50;;;15.20;99.90;;;;;;4861447;29;20128;-92
2022/07/10 04:29:27;;;;;;;6.88;0.50;;;15.30;99.90;;;;;;4829677;29;20570;-88
2022/07/10 04:31:52;;;;;;;3.70;0.50;;;15.30;99.90;;;;;;4861516;29;20042;-91
2022/07/10 04:34:18;;;;;;;5.20;0.57;;;15.30;99.90;;;;;;4845304;29;20045;-91
2022/07/10 04:36:44;;;;;;;4.40;0.50;;;15.30;99.90;;;;;;4861062;29;20038;-87
2022/07/10 04:39:10;;;;;;;3.40;0.30;;;15.40;99.90;;;;;;4861628;29;20041;-89
2022/07/10 04:41:35;;;;;;;4.43;0.52;;;15.30;99.90;;;;;;4861329;29;20045;-88
2022/07/10 04:44:01;;;;;;;6.10;0.60;;;15.30;99.90;;;;;;4860821;29;20552;-93
2022/07/10 04:46:27;;;;;;;2.08;0.45;;;15.30;99.90;;;;;;4860770;29;20113;-88
2022/07/10 04:48:52;;;;;;;4.75;0.50;;;15.30;99.90;;;;;;4860749;29;20052;-89
2022/07/10 04:51:18;;;;;;;5.03;0.77;;;15.30;99.90;;;;;;4844302;29;20050;-88
2022/07/10 04:53:44;;;;;;;6.43;0.70;;;15.30;99.90;;;;;;4861298;29;20564;-88
2022/07/10 04:56:10;;;;;;;2.00;0.40;;;15.40;99.90;;;;;;4844886;29;20060;-89
2022/07/10 04:58:35;;;;;;;1.92;0.30;;;15.50;99.90;;;;;;4861010;29;20068;-89
2022/07/10 05:01:01;;;;;;;2.60;0.40;;;15.40;99.90;;;;;;4860995;29;20082;-88
2022/07/10 05:03:28;;;;;;;4.30;0.65;;;15.40;99.90;;;;;;4860973;29;20057;-87
2022/07/10 05:05:54;;;;;;;5.05;0.50;;;15.80;99.90;;;;;;4844311;29;20047;-88
2022/07/10 05:08:20;;;;;;;3.40;0.73;;;15.40;99.90;;;;;;4860848;29;20559;-86
2022/07/10 05:10:46;;;;;;;4.18;0.60;;;15.50;99.90;;;;;;4860409;29;20053;-89
2022/07/10 05:13:12;;;;;;;5.15;0.50;;;15.50;99.90;;;;;;4860899;29;20045;-88
2022/07/10 05:15:38;;;;;;;2.53;0.70;;;15.60;99.90;;;;;;4860730;29;20049;-88
2022/07/10 05:18:04;;;;;;;1.25;0.45;;;15.80;99.90;;;;;;4860825;29;20049;-87
2022/07/10 05:20:30;;;;;;;3.13;0.40;;;15.80;99.90;;;;;;4860159;29;20045;-88
2022/07/10 05:22:56;;;;;;;3.38;0.35;;;15.80;99.90;;;;;;4844401;29;20042;-87
2022/07/10 05:25:22;;;;;;;4.15;0.70;;;15.60;99.90;;;;;;4861036;29;20140;-88
2022/07/10 05:27:48;;;;;;;6.45;0.50;;;15.60;99.90;;;;;;4860286;29;20402;-88
2022/07/10 05:30:14;;;;;;;3.75;0.40;;;15.60;99.90;;;;;;4860442;29;20045;-88
2022/07/10 05:32:44;;;;;;;3.15;0.45;;;15.70;99.90;;;;;;4860349;29;20050;-88
2022/07/10 05:35:10;;;;;;;5.82;0.47;;;15.70;99.90;;;;;;4840608;29;20053;-87
2022/07/10 05:37:36;;;;;;;1.67;0.32;;;15.90;99.90;;;;;;4842347;29;20057;-87
2022/07/10 05:40:01;;;;;;;4.53;0.57;;;15.90;99.90;;;;;;4854873;29;20041;-87
2022/07/10 05:42:27;;;;;;;4.43;0.88;;;15.80;99.90;;;;;;4860371;29;20053;-86
2022/07/10 05:44:53;;;;;;;3.97;0.38;;;15.70;99.90;;;;;;4860363;29;20041;-88
2022/07/10 05:47:19;;;;;;;3.55;0.50;;;16.00;99.90;;;;;;4843785;29;20507;-88
2022/07/10 05:49:45;;;;;;;3.70;0.40;;;16.20;99.90;;;;;;4858918;29;20045;-88
2022/07/10 05:52:10;;;;;;;2.92;1.00;;;15.80;99.90;;;;;;4843789;29;20045;-88
2022/07/10 05:54:36;;;;;;;3.75;0.65;;;15.90;99.90;;;;;;4843930;29;20084;-86
2022/07/10 05:57:02;;;;;;;2.47;0.30;;;16.20;99.90;;;;;;4843735;29;20046;-87
2022/07/10 05:59:27;;;;;;;3.78;0.32;;;16.00;99.90;;;;;;4846373;29;20053;-87
2022/07/10 06:01:53;;;;;;;1.38;0.20;;;15.90;99.90;;;;;;4863776;29;20045;-87
2022/07/10 06:04:19;;;;;;;8.85;0.57;;;15.90;99.90;;;;;;4847205;29;20053;-86
2022/07/10 06:06:46;;;;;;;2.45;0.40;;;15.90;99.90;;;;;;4846637;29;20062;-87
2022/07/10 06:09:12;;;;;;;2.17;0.90;;;15.70;99.90;;;;;;4864424;29;20053;-86
2022/07/10 06:11:37;;;;;;;4.00;0.40;;;16.10;99.90;;;;;;4846658;29;20410;-86
2022/07/10 06:14:03;;;;;;;2.95;0.40;;;16.00;99.90;;;;;;4864027;29;20067;-88
2022/07/10 06:16:29;;;;;;;5.50;0.68;;;16.10;99.90;;;;;;4847251;29;20049;-87
2022/07/10 06:18:55;;;;;;;4.43;0.38;;;16.20;99.90;;;;;;4864025;29;20148;-87
2022/07/10 06:21:22;;;;;;;4.07;0.50;;;16.10;99.90;;;;;;4862639;29;20037;-87
2022/07/10 06:23:48;;;;;;;3.15;0.65;;;16.20;99.90;;;;;;4847273;29;20559;-86
2022/07/10 06:26:14;;;;;;;3.35;0.60;;;16.20;99.90;;;;;;4847178;29;20071;-87
2022/07/10 06:28:40;;;;;;;1.38;0.40;;;16.20;99.90;;;;;;4863589;29;20050;-88
2022/07/10 06:31:06;;;;;;;4.70;0.60;;;16.10;99.90;;;;;;4831867;29;20120;-87
2022/07/10 06:33:32;;;;;;;2.70;0.20;;;16.20;99.90;;;;;;4846853;29;20146;-88
2022/07/10 06:35:58;;;;;;;4.57;0.45;;;16.10;99.90;;;;;;4862658;29;20050;-85
2022/07/10 06:38:24;;;;;;;2.17;0.30;;;16.10;99.90;;;;;;4831278;29;20064;-86
2022/07/10 06:40:51;;;;;;;2.92;0.55;;;16.10;99.90;;;;;;4863507;29;20041;-87
2022/07/10 06:43:17;;;;;;;4.45;0.60;;;16.20;99.90;;;;;;4862540;29;20045;-88
2022/07/10 06:45:43;;;;;;;4.07;0.90;;;16.00;99.90;;;;;;4847393;29;20394;-87
2022/07/10 06:48:09;;;;;;;2.25;0.30;;;16.10;99.90;;;;;;4847204;29;20064;-89
2022/07/10 06:50:35;;;;;;;9.63;0.77;;;16.10;99.90;;;;;;4863304;29;20049;-87
2022/07/10 06:53:03;;;;;;;2.42;0.35;;;16.20;99.90;;;;;;4863662;29;20045;-86
2022/07/10 06:55:29;;;;;;;3.65;0.50;;;16.10;99.90;;;;;;4862304;29;20042;-85
2022/07/10 06:57:55;;;;;;;1.63;0.50;;;16.10;99.90;;;;;;4863399;29;20105;-84
2022/07/10 07:00:22;;;;;;;1.25;0.35;;;16.20;99.90;;;;;;4837600;29;20050;-85
2022/07/10 07:02:47;;;;;;;3.13;0.30;;;16.20;99.90;;;;;;4868538;29;20050;-84
2022/07/10 07:05:13;;;;;;;5.78;0.30;;;16.20;99.90;;;;;;4870446;29;20045;-85
2022/07/10 07:07:39;;;;;;;4.57;0.40;;;16.30;99.90;;;;;;4851206;29;20046;-83
2022/07/10 07:10:06;;;;;;;4.15;0.40;;;16.30;99.90;;;;;;4868316;29;20495;-86
2022/07/10 07:12:32;;;;;;;4.50;0.65;;;16.20;99.90;;;;;;4864751;29;20057;-85
2022/07/10 07:14:58;;;;;;;1.77;0.20;;;16.20;99.90;;;;;;4867259;29;20400;-88
2022/07/10 07:17:25;;;;;;;1.52;0.28;;;16.20;99.90;;;;;;4845630;29;20113;-88
2022/07/10 07:25:21;;;;;;;3.13;0.30;;;16.60;99.90;;;;;;4849028;29;20491;-87
2022/07/10 07:27:46;;;;;;;0.57;0.32;;;16.70;99.90;;;;;;4845618;29;20057;-87
2022/07/10 07:30:17;;;;;;;3.55;0.35;;;16.70;99.90;;;;;;4846336;29;20045;-86
2022/07/10 07:32:44;;;;;;;4.20;0.70;;;16.70;99.90;;;;;;4862552;29;20060;-86
2022/07/10 07:35:12;;;;;;;6.38;0.40;;;16.80;99.90;;;;;;4862393;29;20049;-86
2022/07/10 07:37:55;;;;;;;0.93;0.30;;;17.00;99.90;;;;;;4858728;29;20065;-85
2022/07/10 07:40:24;;;;;;;1.23;0.20;;;16.90;99.90;;;;;;4845133;29;20042;-88
2022/07/10 07:42:51;;;;;;;3.03;0.43;;;16.90;99.90;;;;;;4834920;29;20061;-87
2022/07/10 07:45:17;;;;;;;3.80;0.65;;;17.70;99.90;;;;;;4848497;29;20388;-84
2022/07/10 07:47:50;;;;;;;2.22;0.20;;;17.10;99.90;;;;;;4836114;29;20049;-89
2022/07/10 07:50:21;;;;;;;0.50;0.30;;;17.10;99.90;;;;;;4834400;29;20125;-86
2022/07/10 07:52:48;;;;;;;1.80;0.20;;;17.00;99.90;;;;;;4850124;29;20053;-86
2022/07/10 07:55:15;;;;;;;0.52;0.20;;;17.10;99.90;;;;;;4859745;29;20053;-87
2022/07/10 07:57:41;;;;;;;2.70;0.20;;;17.20;99.90;;;;;;4862218;29;20125;-87
2022/07/10 08:00:08;;;;;;;1.15;0.40;;;17.20;99.90;;;;;;4845604;29;20054;-89
2022/07/10 08:02:35;;;;;;;3.08;0.30;;;17.30;99.90;;;;;;4854985;29;20491;-87
2022/07/10 08:05:01;;;;;;;3.15;0.15;;;17.40;99.90;;;;;;4835585;29;20522;-87
2022/07/10 08:07:54;;;;;;;1.02;0.30;;;17.20;99.90;;;;;;4861527;29;20053;-86
2022/07/10 08:10:22;;;;;;;3.97;0.30;;;17.00;99.90;;;;;;4831392;29;20061;-87
2022/07/10 08:12:48;;;;;;;3.47;0.30;;;17.00;99.90;;;;;;4850324;29;20471;-87
2022/07/10 08:15:16;;;;;;;2.53;0.68;;;16.90;99.90;;;;;;4830486;29;20077;-85
2022/07/10 08:17:42;;;;;;;5.10;0.40;;;16.80;99.90;;;;;;4857609;29;20082;-85
2022/07/10 08:20:12;;;;;;;1.15;0.13;;;16.70;99.90;;;;;;4844781;29;20499;-85
2022/07/10 08:22:42;;;;;;;3.85;0.30;;;16.50;99.90;;;;;;4844988;29;20049;-85
2022/07/10 08:25:09;;;;;;;1.45;0.30;;;16.50;99.90;;;;;;4845233;29;20060;-86
2022/07/10 08:27:35;;;;;;;1.17;0.20;;;16.40;99.90;;;;;;4861076;29;20526;-85
2022/07/10 08:30:01;;;;;;;2.67;0.25;;;16.30;99.90;;;;;;4861610;29;20050;-84
2022/07/10 08:32:27;;;;;;;2.08;0.30;;;16.30;99.90;;;;;;4861855;29;20455;-85
2022/07/10 08:34:53;;;;;;;2.58;0.30;;;16.30;99.90;;;;;;4861426;29;20140;-86
2022/07/10 08:37:19;;;;;;;0.73;0.20;;;16.40;99.90;;;;;;4861760;29;20037;-85
2022/07/10 08:39:46;;;;;;;1.00;0.10;;;16.50;99.90;;;;;;4861077;29;20531;-86
2022/07/10 08:42:12;;;;;;;0.95;0.20;;;16.50;99.90;;;;;;4861746;29;20056;-86
2022/07/10 08:44:38;;;;;;;3.35;0.20;;;16.60;99.90;;;;;;4845162;29;20041;-89
2022/07/10 08:47:04;;;;;;;1.83;0.20;;;16.60;99.90;;;;;;4862028;29;20060;-93
2022/07/10 08:49:31;;;;;;;0.20;0.00;;;16.90;99.90;;;;;;4861523;29;20045;-90
2022/07/10 08:52:03;;;;;;;0.98;0.10;;;16.90;99.90;;;;;;4861273;29;20045;-87
2022/07/10 08:54:30;;;;;;;2.83;0.10;;;17.10;99.90;;;;;;4862178;29;20112;-88
2022/07/10 08:57:02;;;;;;;0.20;0.10;;;17.20;99.90;;;;;;4861796;29;20049;-90
2022/07/10 08:59:29;;;;;;;2.90;0.35;;;16.80;99.90;;;;;;4845587;29;20081;-89
2022/07/10 09:01:56;;;;;;;3.53;0.25;;;16.90;99.90;;;;;;4844652;29;20136;-90
2022/07/10 09:04:23;;;;;;;1.98;0.30;;;17.00;99.90;;;;;;4844247;29;20562;-90
2022/07/10 09:06:51;;;;;;;1.85;0.38;;;17.10;99.90;;;;;;4861169;29;20056;-93
2022/07/10 09:09:16;;;;;;;2.13;0.15;;;17.20;99.90;;;;;;4860500;29;20045;-90
2022/07/10 09:11:44;;;;;;;2.10;0.30;;;17.40;99.90;;;;;;4860722;29;20096;-91
2022/07/10 09:14:11;;;;;;;1.08;0.15;;;17.50;99.90;;;;;;4861508;29;20049;-92
2022/07/10 09:16:42;;;;;;;2.97;0.20;;;17.50;99.90;;;;;;4861538;29;20101;-86
2022/07/10 09:19:21;;;;;;;2.88;0.20;;;17.60;99.90;;;;;;4861513;29;20052;-88
2022/07/10 09:22:01;;;;;;;1.20;0.10;;;17.70;99.90;;;;;;4844581;29;20121;-86
2022/07/10 09:24:29;;;;;;;1.95;0.20;;;17.80;99.90;;;;;;4860350;29;20574;-91
2022/07/10 09:27:01;;;;;;;0.30;0.10;;;17.80;99.90;;;;;;4861282;29;20060;-89
2022/07/10 09:29:27;;;;;;;1.85;0.65;;;18.00;99.90;;;;;;4860987;29;20106;-91
2022/07/10 09:31:54;;;;;;;1.80;0.30;;;18.00;99.90;;;;;;4844629;29;20042;-88
2022/07/10 09:34:39;;;;;;;2.20;0.10;;;18.20;99.90;;;;;;4860971;29;20567;-92
2022/07/10 09:37:24;;;;;;;0.35;0.20;;;18.00;99.90;;;;;;4860660;29;20577;-90
2022/07/10 09:39:56;;;;;;;2.08;0.28;;;17.90;99.90;;;;;;4842326;29;20050;-91
2022/07/10 09:42:39;;;;;;;1.23;0.20;;;17.80;99.90;;;;;;4851771;29;20049;-87
2022/07/10 09:45:13;;;;;;;6.25;0.60;;;17.80;99.90;;;;;;4843935;29;20321;-89
2022/07/10 09:47:39;;;;;;;5.57;0.30;;;17.90;99.90;;;;;;4860641;29;20563;-90
2022/07/10 09:50:33;;;;;;;2.97;0.73;;;17.80;99.90;;;;;;4861393;29;20060;-88
2022/07/10 09:53:04;;;;;;;0.77;0.10;;;17.90;99.90;;;;;;4859155;29;20054;-90
2022/07/10 09:55:32;;;;;;;3.67;0.25;;;17.90;99.90;;;;;;4860160;29;20185;-89
2022/07/10 09:58:02;;;;;;;1.55;0.20;;;17.80;99.90;;;;;;4860419;29;20109;-85
2022/07/10 10:00:45;;;;;;;0.50;0.10;;;18.00;99.90;;;;;;4860634;29;20046;-87
2022/07/10 10:03:11;;;;;;;1.23;0.17;;;17.70;99.90;;;;;;4859781;29;20037;-90
2022/07/10 10:05:43;;;;;;;4.40;0.35;;;17.80;99.90;;;;;;4860270;29;20045;-85
2022/07/10 10:08:30;;;;;;;1.48;0.20;;;17.80;99.90;;;;;;4860472;29;20053;-87
2022/07/10 10:10:57;;;;;;;0.57;0.20;;;17.80;99.90;;;;;;4860293;29;20056;-87
2022/07/10 10:13:27;;;;;;;2.00;0.40;;;17.80;99.90;;;;;;4860642;29;20490;-88
2022/07/10 10:22:24;;;;;;;1.67;0.30;;;17.30;99.90;;;;;;4860324;29;20106;-85
2022/07/10 10:24:51;;;;;;;2.97;0.40;;;17.10;99.90;;;;;;4843819;29;20058;-90
2022/07/10 10:27:18;;;;;;;0.93;0.20;;;17.20;99.90;;;;;;4860115;29;20049;-92
2022/07/10 10:29:45;;;;;;;3.50;0.30;;;17.30;99.90;;;;;;4859876;29;20057;-88
2022/07/10 10:32:11;;;;;;;1.13;0.35;;;17.40;99.90;;;;;;4844336;29;20452;-88
2022/07/10 10:34:45;;;;;;;2.65;0.40;;;17.40;99.90;;;;;;4846594;29;20045;-88
2022/07/10 10:37:38;;;;;;;3.30;0.50;;;17.60;99.90;;;;;;4848873;29;20462;-90
2022/07/10 10:40:05;;;;;;;1.70;0.38;;;17.90;99.90;;;;;;4791815;29;20677;-89
2022/07/10 10:42:36;;;;;;;5.32;0.50;;;18.10;99.90;;;;;;4795588;29;20055;-88
2022/07/10 10:45:25;;;;;;;4.28;0.43;;;18.00;99.90;;;;;;4813550;29;20559;-94
2022/07/10 10:48:01;;;;;;;4.15;1.40;;;17.90;99.90;;;;;;4810906;29;20126;-92
2022/07/10 10:50:44;;;;;;;1.80;0.38;;;17.80;99.90;;;;;;4794170;29;20141;-91
2022/07/10 10:53:19;;;;;;;1.77;0.50;;;17.70;99.90;;;;;;4792488;29;20059;-89
2022/07/10 10:56:00;;;;;;;2.03;0.68;;;17.70;99.90;;;;;;4807413;29;20163;-88
2022/07/10 10:58:36;;;;;;;2.35;0.40;;;17.70;99.90;;;;;;4806170;29;20520;-90
2022/07/10 11:01:25;;;;;;;2.60;0.40;;;17.50;99.90;;;;;;4791581;29;20089;-89
2022/07/10 11:04:09;;;;;;;2.60;0.50;;;17.50;99.90;;;;;;4791311;29;20120;-87
2022/07/10 11:06:52;;;;;;;2.78;0.40;;;17.40;99.90;;;;;;4792950;29;20067;-88
2022/07/10 11:09:33;;;;;;;2.10;0.47;;;17.60;99.90;;;;;;4806072;29;20139;-89
2022/07/10 11:12:04;;;;;;;2.45;0.50;;;17.70;99.90;;;;;;4806378;29;20551;-89
2022/07/10 11:14:36;;;;;;;4.13;0.43;;;17.80;99.90;;;;;;4807172;29;20055;-92
2022/07/10 11:17:02;;;;;;;5.82;0.93;;;17.90;99.90;;;;;;4818925;29;20136;-89
2022/07/10 11:19:29;;;;;;;3.83;0.57;;;18.10;99.90;;;;;;4845638;29;20140;-89
2022/07/10 11:22:06;;;;;;;2.38;0.63;;;18.00;99.90;;;;;;4845145;29;20060;-85
2022/07/10 11:24:48;;;;;;;4.65;0.50;;;18.00;99.90;;;;;;4845773;29;20049;-87
2022/07/10 11:27:50;;;;;;;4.78;0.60;;;18.00;99.90;;;;;;4845680;29;20064;-89
2022/07/10 11:30:16;;;;;;;2.92;0.60;;;18.00;99.90;;;;;;4844459;29;20058;-88
2022/07/10 11:32:41;;;;;;;2.88;0.47;;;18.10;99.90;;;;;;4827896;29;20045;-89
2022/07/10 11:35:11;;;;;;;1.33;0.40;;;18.00;99.90;;;;;;4844372;29;20126;-91
2022/07/10 11:37:54;;;;;;;1.52;0.50;;;18.00;99.90;;;;;;4854991;29;20057;-90
2022/07/10 11:40:20;;;;;;;2.10;0.45;;;18.00;99.90;;;;;;4862047;29;20058;-87
2022/07/10 11:42:50;;;;;;;3.17;0.60;;;18.10;99.90;;;;;;4845919;29;20049;-87
2022/07/10 11:45:28;;;;;;;4.68;0.60;;;18.10;99.90;;;;;;4862537;29;20053;-88
2022/07/10 11:47:54;;;;;;;2.60;0.40;;;18.20;99.90;;;;;;4862527;29;20380;-90
2022/07/10 11:50:20;;;;;;;4.43;0.50;;;18.20;99.90;;;;;;4861896;29;20061;-89
2022/07/10 11:52:46;;;;;;;2.00;0.40;;;18.30;99.90;;;;;;4861911;29;20051;-87
2022/07/10 11:55:22;;;;;;;1.60;0.30;;;18.40;99.90;;;;;;4861739;29;20049;-89
2022/07/10 11:57:48;;;;;;;0.28;0.22;;;18.40;99.90;;;;;;4862380;29;20056;-87
2022/07/10 12:00:30;;;;;;;0.75;0.20;;;18.40;99.90;;;;;;4845473;29;20049;-87
2022/07/10 12:03:14;;;;;;;1.80;0.28;;;18.30;99.90;;;;;;4862217;29;20365;-90
2022/07/10 12:05:41;;;;;;;1.92;0.30;;;18.40;99.90;;;;;;4862913;29;20056;-92
2022/07/10 12:08:09;;;;;;;1.23;0.30;;;18.60;99.90;;;;;;4861072;29;20095;-92
2022/07/10 12:10:35;;;;;;;1.60;0.30;;;18.40;99.90;;;;;;4845254;29;20060;-89
2022/07/10 12:13:24;;;;;;;1.63;0.40;;;18.40;99.90;;;;;;4846457;29;20113;-93
2022/07/10 12:15:53;;;;;;;5.25;0.40;;;18.50;99.90;;;;;;4793504;29;20516;-91
2022/07/10 12:18:21;;;;;;;1.40;0.45;;;18.60;99.90;;;;;;4792102;29;20059;-90
2022/07/10 12:20:49;;;;;;;3.65;0.43;;;18.70;99.90;;;;;;4790332;29;20065;-85
2022/07/10 12:23:19;;;;;;;1.85;0.17;;;18.80;99.90;;;;;;4805053;29;20055;-83
2022/07/10 12:25:49;;;;;;;1.48;0.30;;;18.60;99.90;;;;;;4789718;29;20472;-86
2022/07/10 12:28:15;;;;;;;0.90;0.30;;;18.70;99.90;;;;;;4797769;29;20123;-87
2022/07/10 12:30:42;;;;;;;2.97;0.40;;;18.60;99.90;;;;;;4790007;29;20563;-87
2022/07/10 12:33:17;;;;;;;1.65;0.28;;;18.70;99.90;;;;;;4806213;29;20467;-87
2022/07/10 12:35:56;;;;;;;2.08;0.20;;;18.80;99.90;;;;;;4804897;29;20083;-86
2022/07/10 12:38:26;;;;;;;1.63;0.40;;;18.80;99.90;;;;;;4789933;29;20057;-85
2022/07/10 12:41:07;;;;;;;0.40;0.20;;;18.90;99.90;;;;;;4789165;29;20073;-86
2022/07/10 12:43:33;;;;;;;0.77;0.20;;;19.00;99.90;;;;;;4783198;29;20058;-85
2022/07/10 12:46:28;;;;;;;3.85;0.40;;;18.80;99.90;;;;;;4804382;29;20463;-85
2022/07/10 12:49:08;;;;;;;1.02;0.30;;;18.90;99.90;;;;;;4732952;30;20056;-84
2022/07/10 12:51:50;;;;;;;1.50;0.52;;;18.60;99.90;;;;;;4733302;30;20090;-84
2022/07/10 12:54:36;;;;;;;1.75;0.50;;;18.40;99.90;;;;;;4768231;30;20426;-85
2022/07/10 12:57:05;;;;;;;;;;;18.30;99.90;;;;;;4767933;30;20044;-83
2022/07/10 12:59:33;;;;;;;2.08;0.30;;;18.20;99.90;;;;;;4768424;30;20016;-85
2022/07/10 13:02:17;;;;;;;0.95;0.30;;;18.20;99.90;;;;;;4768502;30;20079;-90
2022/07/10 13:04:55;;;;;;;1.65;0.50;;;18.30;99.90;;;;;;4753294;30;20097;-87
2022/07/10 13:07:30;;;;;;;1.00;0.40;;;18.40;99.90;;;;;;4753231;30;20051;-87
2022/07/10 13:09:59;;;;;;;3.38;0.43;;;18.40;99.90;;;;;;4768501;30;20594;-87
2022/07/10 13:12:24;;;;;;;2.38;0.60;;;18.40;99.90;;;;;;4767807;30;20484;-85